Normand Flipper — 9V6929 — position and weather

sailwx.info

Track history (hours):
 
Tides and Currents Weather Stations Pressure Air Temp Water Temp Dewpoint Dewpoint Depression Visibility Wind Speed Wind Dir Waves Ship Positions

Normand Flipper

Last reported at 2017-Jan-20 11:31 UTC. Time now 2017-Jan-20 11:51 UTC.
Position N 57°08' W 002°05'.

Length 89 m; draft 4.8 m.

Type: Other ship. MMSI: 566522000.

Date/timePositionNaut miles runAvg speedWind from/ knotsBaromVisibWave heightAir tempDewpointWater temp
2017-Jan-20 11:31N 57°08' W 002°05'0 0.0
2017-Jan-20 10:31N 57°08' W 002°05'0 0.0
2017-Jan-20 09:31N 57°08' W 002°05'0 0.0
2017-Jan-20 08:28N 57°08' W 002°05'0 0.0
2017-Jan-20 07:31N 57°08' W 002°05'0 0.0
2017-Jan-20 06:31N 57°08' W 002°05'0 0.0
2017-Jan-20 05:31N 57°08' W 002°05'0 0.0
2017-Jan-20 04:31N 57°08' W 002°05'0 0.0
2017-Jan-20 03:31N 57°08' W 002°05'0 0.0
2017-Jan-20 02:31N 57°08' W 002°05'0 0.0
2017-Jan-20 01:33N 57°08' W 002°05'3 3.3
2017-Jan-20 00:33N 57°10' W 001°60'0 0.0
2017-Jan-19 23:33N 57°10' W 001°60'0 0.0
2017-Jan-19 22:33N 57°10' W 001°60'4 3.5
2017-Jan-19 21:33N 57°13' W 001°56'1210.6
2017-Jan-19 20:28N 57°23' W 001°46'1011.1
2017-Jan-19 19:33N 57°33' W 001°41'1 0.1
2017-Jan-19 02:33N 57°34' W 001°42'1510.3
2017-Jan-19 01:07N 57°20' W 001°49'611.2
2017-Jan-19 00:34N 57°15' W 001°55'8 8.2
2017-Jan-18 23:33N 57°08' W 002°05'0 0.0
2017-Jan-18 22:33N 57°08' W 002°05'0 0.0
2017-Jan-18 21:33N 57°08' W 002°05'0 0.0
2017-Jan-18 20:33N 57°08' W 002°05'0 0.3
2017-Jan-18 19:34N 57°08' W 002°04'2 2.5
2017-Jan-18 18:34N 57°10' W 002°00'0 0.0
2017-Jan-18 17:33N 57°10' W 002°00'0 0.0
2017-Jan-18 16:33N 57°10' W 002°00'7 6.7
2017-Jan-18 15:34N 57°15' W 001°54'1212.1
2017-Jan-18 14:33N 57°26' W 001°42'  
2017-Jan-15 20:32N 57°36' W 001°42'1812.3
2017-Jan-15 19:07N 57°19' W 001°50'711.9
2017-Jan-15 18:33N 57°13' W 001°57'6 6.4
2017-Jan-15 17:33N 57°08' W 002°05'0 0.0
2017-Jan-15 16:33N 57°08' W 002°05'0 0.0
2017-Jan-15 15:31N 57°08' W 002°05'0 0.0
2017-Jan-15 14:19N 57°08' W 002°05'0 0.0
2017-Jan-15 13:31N 57°08' W 002°05'0 0.0
2017-Jan-15 12:31N 57°08' W 002°05'0 0.0
2017-Jan-15 11:31N 57°08' W 002°05'0 0.0
2017-Jan-15 10:31N 57°08' W 002°05'0 0.0
2017-Jan-15 09:31N 57°08' W 002°05'0 0.0
2017-Jan-15 08:31N 57°08' W 002°05'0 0.0
2017-Jan-15 07:31N 57°08' W 002°05'0 0.0
2017-Jan-15 06:28N 57°08' W 002°05'0 0.0
2017-Jan-15 05:31N 57°08' W 002°05'0 0.0
2017-Jan-15 04:31N 57°08' W 002°05'0 0.0
2017-Jan-15 03:31N 57°08' W 002°05'0 0.0
2017-Jan-15 02:31N 57°08' W 002°05'0 0.0
2017-Jan-15 01:31N 57°08' W 002°05'0 0.0
2017-Jan-15 00:31N 57°08' W 002°05'0 0.0
2017-Jan-14 23:31N 57°08' W 002°05'0 0.0
2017-Jan-14 22:31N 57°08' W 002°05'0 0.0
2017-Jan-14 21:31N 57°08' W 002°05'0 0.0
2017-Jan-14 20:31N 57°08' W 002°05'0 0.0
2017-Jan-14 19:31N 57°08' W 002°05'0 0.0
2017-Jan-14 18:31N 57°08' W 002°05'0 0.0
2017-Jan-14 17:31N 57°08' W 002°05'0 0.0
2017-Jan-14 16:31N 57°08' W 002°05'0 0.0
2017-Jan-14 15:31N 57°08' W 002°05'0 0.0
2017-Jan-14 14:31N 57°08' W 002°05'0 0.0
2017-Jan-14 13:31N 57°08' W 002°05'0 0.0
2017-Jan-14 12:31N 57°08' W 002°05'0 0.0
2017-Jan-14 11:31N 57°08' W 002°05'0 0.0
2017-Jan-14 10:31N 57°08' W 002°05'0 0.0
2017-Jan-14 09:31N 57°08' W 002°05'2 1.8
2017-Jan-14 08:33N 57°09' W 002°02'2 1.6
2017-Jan-14 07:33N 57°11' W 002°01'0 0.0
2017-Jan-14 06:33N 57°11' W 002°01'0 0.0
2017-Jan-14 05:33N 57°11' W 002°01'0 0.0
2017-Jan-14 04:33N 57°11' W 002°01'0 0.0
2017-Jan-14 03:33N 57°11' W 002°01'0 0.0
2017-Jan-13 23:33N 57°11' W 002°01'0 0.0
2017-Jan-13 22:33N 57°11' W 002°01'0 0.0
2017-Jan-13 21:33N 57°11' W 002°01'0 0.0
2017-Jan-13 20:33N 57°11' W 002°01'0 0.0
2017-Jan-13 19:33N 57°11' W 002°01'0 0.0
2017-Jan-13 18:33N 57°11' W 002°01'0 0.0
2017-Jan-13 17:33N 57°11' W 002°01'0 0.0
2017-Jan-13 16:33N 57°11' W 002°01'0 0.0
2017-Jan-13 15:33N 57°11' W 002°01'0 0.0
2017-Jan-13 14:33N 57°11' W 002°01'0 0.0
2017-Jan-13 13:33N 57°11' W 002°01'0 0.0
2017-Jan-13 12:33N 57°11' W 002°01'0 0.0
2017-Jan-13 11:33N 57°11' W 002°01'0 0.0
2017-Jan-13 10:33N 57°11' W 002°01'0 0.0
2017-Jan-13 09:33N 57°11' W 002°01'0 0.0
2017-Jan-13 08:34N 57°11' W 002°01'0 0.0
2017-Jan-13 07:33N 57°11' W 002°01'0 0.0
2017-Jan-13 06:33N 57°11' W 002°01'0 0.0
2017-Jan-13 05:33N 57°11' W 002°01'0 0.0
2017-Jan-13 04:33N 57°11' W 002°01'0 0.0
2017-Jan-13 03:33N 57°11' W 002°01'0 0.0
2017-Jan-13 02:33N 57°11' W 002°01'0 0.0
2017-Jan-13 01:33N 57°11' W 002°01'0 0.0
2017-Jan-13 00:33N 57°11' W 002°01'0 0.0
2017-Jan-12 23:33N 57°11' W 002°01'0 0.0
2017-Jan-12 22:33N 57°11' W 002°01'0 0.0
2017-Jan-12 21:33N 57°11' W 002°01'0 0.0
2017-Jan-12 20:33N 57°11' W 002°01'0 0.0
2017-Jan-12 19:33N 57°11' W 002°01'0 0.0
2017-Jan-12 18:33N 57°11' W 002°01'0 0.0
2017-Jan-12 17:33N 57°11' W 002°01'0 0.0
2017-Jan-12 16:33N 57°11' W 002°01'0 0.0
2017-Jan-12 15:33N 57°11' W 002°01'0 0.0
2017-Jan-12 14:33N 57°11' W 002°01'0 0.0
2017-Jan-12 13:33N 57°11' W 002°01'0 0.0
2017-Jan-12 12:33N 57°11' W 002°01'0 0.0
2017-Jan-12 11:33N 57°11' W 002°01'0 0.0
2017-Jan-12 07:33N 57°11' W 002°01'0 0.0
2017-Jan-12 06:33N 57°11' W 002°01'0 0.0
2017-Jan-12 05:33N 57°11' W 002°01'0 0.0
2017-Jan-12 04:33N 57°11' W 002°01'0 0.0
2017-Jan-12 03:33N 57°11' W 002°01'0 0.0
2017-Jan-12 02:33N 57°11' W 002°01'0 0.0
2017-Jan-12 01:33N 57°11' W 002°01'0 0.0
2017-Jan-12 00:33N 57°11' W 002°01'0 0.0
2017-Jan-11 23:33N 57°11' W 002°01'0 0.0
2017-Jan-11 22:33N 57°11' W 002°01'0 0.0
2017-Jan-11 21:33N 57°11' W 002°01'0 0.0
2017-Jan-11 20:33N 57°11' W 002°01'0 0.0
2017-Jan-11 19:33N 57°11' W 002°01'0 0.0
2017-Jan-11 18:33N 57°11' W 002°01'0 0.0
2017-Jan-11 17:33N 57°11' W 002°01'0 0.0
2017-Jan-11 16:33N 57°11' W 002°01'0 0.0
2017-Jan-11 15:33N 57°11' W 002°01'0 0.0
2017-Jan-11 14:33N 57°11' W 002°01'0 0.0
2017-Jan-11 13:33N 57°11' W 002°01'0 0.0
2017-Jan-11 12:33N 57°11' W 002°01'0 0.0
2017-Jan-11 11:33N 57°11' W 002°01'0 0.0
2017-Jan-11 10:33N 57°11' W 002°01'0 0.0
2017-Jan-11 09:33N 57°11' W 002°01'0 0.0
2017-Jan-11 08:33N 57°11' W 002°01'0 0.0
2017-Jan-11 07:33N 57°11' W 002°01'0 0.0
2017-Jan-11 06:33N 57°11' W 002°01'0 0.0
2017-Jan-11 05:33N 57°11' W 002°01'0 0.0
2017-Jan-11 04:33N 57°11' W 002°01'0 0.0
2017-Jan-11 03:33N 57°11' W 002°01'0 0.0
2017-Jan-11 02:33N 57°11' W 002°01'0 0.0
2017-Jan-11 01:33N 57°11' W 002°01'0 0.0
2017-Jan-11 00:33N 57°11' W 002°01'0 0.0
2017-Jan-10 23:33N 57°11' W 002°01'0 0.0
2017-Jan-10 22:33N 57°11' W 002°01'0 0.0
2017-Jan-10 21:33N 57°11' W 002°01'0 0.0
2017-Jan-10 20:33N 57°11' W 002°01'0 0.0
2017-Jan-10 19:33N 57°11' W 002°01'0 0.0
2017-Jan-10 18:33N 57°11' W 002°01'0 0.0
2017-Jan-10 17:33N 57°11' W 002°01'0 0.0
2017-Jan-10 16:33N 57°11' W 002°01'0 0.0
2017-Jan-10 15:33N 57°11' W 002°01'0 0.1
2017-Jan-10 14:33N 57°11' W 002°01'3 3.1
2017-Jan-10 13:33N 57°08' W 002°05'0 0.0
2017-Jan-10 12:33N 57°08' W 002°05'0 0.0
2017-Jan-10 11:33N 57°08' W 002°05'  
Track history (hours):
 
Tides and Currents Weather Stations Pressure Air Temp Water Temp Dewpoint Dewpoint Depression Visibility Wind Speed Wind Dir Waves Ship Positions

Normand Flipper

Last reported at 2017-Jan-20 11:31 UTC. Time now 2017-Jan-20 11:51 UTC.
Position N 57°08' W 002°05'.

Length 89 m; draft 4.8 m.

Type: Other ship. MMSI: 566522000.

Date/timePositionNaut miles runAvg speedWind from/ knotsBaromVisibWave heightAir tempDewpointWater temp
2017-Jan-20 11:31N 57°08' W 002°05'0 0.0
2017-Jan-20 10:31N 57°08' W 002°05'0 0.0
2017-Jan-20 09:31N 57°08' W 002°05'0 0.0
2017-Jan-20 08:28N 57°08' W 002°05'0 0.0
2017-Jan-20 07:31N 57°08' W 002°05'0 0.0
2017-Jan-20 06:31N 57°08' W 002°05'0 0.0
2017-Jan-20 05:31N 57°08' W 002°05'0 0.0
2017-Jan-20 04:31N 57°08' W 002°05'0 0.0
2017-Jan-20 03:31N 57°08' W 002°05'0 0.0
2017-Jan-20 02:31N 57°08' W 002°05'0 0.0
2017-Jan-20 01:33N 57°08' W 002°05'3 3.3
2017-Jan-20 00:33N 57°10' W 001°60'0 0.0
2017-Jan-19 23:33N 57°10' W 001°60'0 0.0
2017-Jan-19 22:33N 57°10' W 001°60'4 3.5
2017-Jan-19 21:33N 57°13' W 001°56'1210.6
2017-Jan-19 20:28N 57°23' W 001°46'1011.1
2017-Jan-19 19:33N 57°33' W 001°41'1 0.1
2017-Jan-19 02:33N 57°34' W 001°42'1510.3
2017-Jan-19 01:07N 57°20' W 001°49'611.2
2017-Jan-19 00:34N 57°15' W 001°55'8 8.2
2017-Jan-18 23:33N 57°08' W 002°05'0 0.0
2017-Jan-18 22:33N 57°08' W 002°05'0 0.0
2017-Jan-18 21:33N 57°08' W 002°05'0 0.0
2017-Jan-18 20:33N 57°08' W 002°05'0 0.3
2017-Jan-18 19:34N 57°08' W 002°04'2 2.5
2017-Jan-18 18:34N 57°10' W 002°00'0 0.0
2017-Jan-18 17:33N 57°10' W 002°00'0 0.0
2017-Jan-18 16:33N 57°10' W 002°00'7 6.7
2017-Jan-18 15:34N 57°15' W 001°54'1212.1
2017-Jan-18 14:33N 57°26' W 001°42'  
2017-Jan-15 20:32N 57°36' W 001°42'1812.3
2017-Jan-15 19:07N 57°19' W 001°50'711.9
2017-Jan-15 18:33N 57°13' W 001°57'6 6.4
2017-Jan-15 17:33N 57°08' W 002°05'0 0.0
2017-Jan-15 16:33N 57°08' W 002°05'0 0.0
2017-Jan-15 15:31N 57°08' W 002°05'0 0.0
2017-Jan-15 14:19N 57°08' W 002°05'0 0.0
2017-Jan-15 13:31N 57°08' W 002°05'0 0.0
2017-Jan-15 12:31N 57°08' W 002°05'0 0.0
2017-Jan-15 11:31N 57°08' W 002°05'0 0.0
2017-Jan-15 10:31N 57°08' W 002°05'0 0.0
2017-Jan-15 09:31N 57°08' W 002°05'0 0.0
2017-Jan-15 08:31N 57°08' W 002°05'0 0.0
2017-Jan-15 07:31N 57°08' W 002°05'0 0.0
2017-Jan-15 06:28N 57°08' W 002°05'0 0.0
2017-Jan-15 05:31N 57°08' W 002°05'0 0.0
2017-Jan-15 04:31N 57°08' W 002°05'0 0.0
2017-Jan-15 03:31N 57°08' W 002°05'0 0.0
2017-Jan-15 02:31N 57°08' W 002°05'0 0.0
2017-Jan-15 01:31N 57°08' W 002°05'0 0.0
2017-Jan-15 00:31N 57°08' W 002°05'0 0.0
2017-Jan-14 23:31N 57°08' W 002°05'0 0.0
2017-Jan-14 22:31N 57°08' W 002°05'0 0.0
2017-Jan-14 21:31N 57°08' W 002°05'0 0.0
2017-Jan-14 20:31N 57°08' W 002°05'0 0.0
2017-Jan-14 19:31N 57°08' W 002°05'0 0.0
2017-Jan-14 18:31N 57°08' W 002°05'0 0.0
2017-Jan-14 17:31N 57°08' W 002°05'0 0.0
2017-Jan-14 16:31N 57°08' W 002°05'0 0.0
2017-Jan-14 15:31N 57°08' W 002°05'0 0.0
2017-Jan-14 14:31N 57°08' W 002°05'0 0.0
2017-Jan-14 13:31N 57°08' W 002°05'0 0.0
2017-Jan-14 12:31N 57°08' W 002°05'0 0.0
2017-Jan-14 11:31N 57°08' W 002°05'0 0.0
2017-Jan-14 10:31N 57°08' W 002°05'0 0.0
2017-Jan-14 09:31N 57°08' W 002°05'2 1.8
2017-Jan-14 08:33N 57°09' W 002°02'2 1.6
2017-Jan-14 07:33N 57°11' W 002°01'0 0.0
2017-Jan-14 06:33N 57°11' W 002°01'0 0.0
2017-Jan-14 05:33N 57°11' W 002°01'0 0.0
2017-Jan-14 04:33N 57°11' W 002°01'0 0.0
2017-Jan-14 03:33N 57°11' W 002°01'0 0.0
2017-Jan-13 23:33N 57°11' W 002°01'0 0.0
2017-Jan-13 22:33N 57°11' W 002°01'0 0.0
2017-Jan-13 21:33N 57°11' W 002°01'0 0.0
2017-Jan-13 20:33N 57°11' W 002°01'0 0.0
2017-Jan-13 19:33N 57°11' W 002°01'0 0.0
2017-Jan-13 18:33N 57°11' W 002°01'0 0.0
2017-Jan-13 17:33N 57°11' W 002°01'0 0.0
2017-Jan-13 16:33N 57°11' W 002°01'0 0.0
2017-Jan-13 15:33N 57°11' W 002°01'0 0.0
2017-Jan-13 14:33N 57°11' W 002°01'0 0.0
2017-Jan-13 13:33N 57°11' W 002°01'0 0.0
2017-Jan-13 12:33N 57°11' W 002°01'0 0.0
2017-Jan-13 11:33N 57°11' W 002°01'0 0.0
2017-Jan-13 10:33N 57°11' W 002°01'0 0.0
2017-Jan-13 09:33N 57°11' W 002°01'0 0.0
2017-Jan-13 08:34N 57°11' W 002°01'0 0.0
2017-Jan-13 07:33N 57°11' W 002°01'0 0.0
2017-Jan-13 06:33N 57°11' W 002°01'0 0.0
2017-Jan-13 05:33N 57°11' W 002°01'0 0.0
2017-Jan-13 04:33N 57°11' W 002°01'0 0.0
2017-Jan-13 03:33N 57°11' W 002°01'0 0.0
2017-Jan-13 02:33N 57°11' W 002°01'0 0.0
2017-Jan-13 01:33N 57°11' W 002°01'0 0.0
2017-Jan-13 00:33N 57°11' W 002°01'0 0.0
2017-Jan-12 23:33N 57°11' W 002°01'0 0.0
2017-Jan-12 22:33N 57°11' W 002°01'0 0.0
2017-Jan-12 21:33N 57°11' W 002°01'0 0.0
2017-Jan-12 20:33N 57°11' W 002°01'0 0.0
2017-Jan-12 19:33N 57°11' W 002°01'0 0.0
2017-Jan-12 18:33N 57°11' W 002°01'0 0.0
2017-Jan-12 17:33N 57°11' W 002°01'0 0.0
2017-Jan-12 16:33N 57°11' W 002°01'0 0.0
2017-Jan-12 15:33N 57°11' W 002°01'0 0.0
2017-Jan-12 14:33N 57°11' W 002°01'0 0.0
2017-Jan-12 13:33N 57°11' W 002°01'0 0.0
2017-Jan-12 12:33N 57°11' W 002°01'0 0.0
2017-Jan-12 11:33N 57°11' W 002°01'0 0.0
2017-Jan-12 07:33N 57°11' W 002°01'0 0.0
2017-Jan-12 06:33N 57°11' W 002°01'0 0.0
2017-Jan-12 05:33N 57°11' W 002°01'0 0.0
2017-Jan-12 04:33N 57°11' W 002°01'0 0.0
2017-Jan-12 03:33N 57°11' W 002°01'0 0.0
2017-Jan-12 02:33N 57°11' W 002°01'0 0.0
2017-Jan-12 01:33N 57°11' W 002°01'0 0.0
2017-Jan-12 00:33N 57°11' W 002°01'0 0.0
2017-Jan-11 23:33N 57°11' W 002°01'0 0.0
2017-Jan-11 22:33N 57°11' W 002°01'0 0.0
2017-Jan-11 21:33N 57°11' W 002°01'0 0.0
2017-Jan-11 20:33N 57°11' W 002°01'0 0.0
2017-Jan-11 19:33N 57°11' W 002°01'0 0.0
2017-Jan-11 18:33N 57°11' W 002°01'0 0.0
2017-Jan-11 17:33N 57°11' W 002°01'0 0.0
2017-Jan-11 16:33N 57°11' W 002°01'0 0.0
2017-Jan-11 15:33N 57°11' W 002°01'0 0.0
2017-Jan-11 14:33N 57°11' W 002°01'0 0.0
2017-Jan-11 13:33N 57°11' W 002°01'0 0.0
2017-Jan-11 12:33N 57°11' W 002°01'0 0.0
2017-Jan-11 11:33N 57°11' W 002°01'0 0.0
2017-Jan-11 10:33N 57°11' W 002°01'0 0.0
2017-Jan-11 09:33N 57°11' W 002°01'0 0.0
2017-Jan-11 08:33N 57°11' W 002°01'0 0.0
2017-Jan-11 07:33N 57°11' W 002°01'0 0.0
2017-Jan-11 06:33N 57°11' W 002°01'0 0.0
2017-Jan-11 05:33N 57°11' W 002°01'0 0.0
2017-Jan-11 04:33N 57°11' W 002°01'0 0.0
2017-Jan-11 03:33N 57°11' W 002°01'0 0.0
2017-Jan-11 02:33N 57°11' W 002°01'0 0.0
2017-Jan-11 01:33N 57°11' W 002°01'0 0.0
2017-Jan-11 00:33N 57°11' W 002°01'0 0.0
2017-Jan-10 23:33N 57°11' W 002°01'0 0.0
2017-Jan-10 22:33N 57°11' W 002°01'0 0.0
2017-Jan-10 21:33N 57°11' W 002°01'0 0.0
2017-Jan-10 20:33N 57°11' W 002°01'0 0.0
2017-Jan-10 19:33N 57°11' W 002°01'0 0.0
2017-Jan-10 18:33N 57°11' W 002°01'0 0.0
2017-Jan-10 17:33N 57°11' W 002°01'0 0.0
2017-Jan-10 16:33N 57°11' W 002°01'0 0.0
2017-Jan-10 15:33N 57°11' W 002°01'0 0.1
2017-Jan-10 14:33N 57°11' W 002°01'3 3.1
2017-Jan-10 13:33N 57°08' W 002°05'0 0.0
2017-Jan-10 12:33N 57°08' W 002°05'0 0.0
2017-Jan-10 11:33N 57°08' W 002°05'  

Dump ship's entire track history